Hauptseite
METAR-TAF:

METAR-TAF

Flughäfen :

Dschibuti, Dschibuti

Flughafen Dschibuti

Breite: 11-33N, Länge: 043-10E, Höhe: 49 m

Beobachtung

Neuester Wetterbericht von vor 15 Stunden und 4 Minuten, um 09:00 UTC
Wind 11 kt aus Ost
Temperatur
Luftdruck 1015 hPa
Sichtweite 10 km oder mehr
Leicht bewölkt in der Höhe von 2000 ft

METAR: HDAM 170900Z 08011KT 9999 FEW020 28//18 Q1015

Zeit: 03:04 (00:04 UTC)

Prognose

Neuester Wetterbericht von vor 19 Stunden und 4 Minuten, um 05:00 UTC
Gültige Prognose vom 17 um 06 UTC bis 18 um 06 UTC
Wind 10 kt aus Ost
Sichtweite 10 km oder mehr
Leicht bewölkt in der Höhe von 2300 ft
Übergehend zu
vom 17 um 15 UTC bis 18 um 06 UTC
Wind 3 kt aus unterschiedlichen Richtungen
Sichtweite 10 km oder mehr
keine Wolken unter 1500 m und keine Kumulonimbus oder Gewitterwolken

TAF: HDAM 170500Z 1706/1806 10010KT 9999 FEW023 BECMG 1715/1806 VRB03KT CAVOK

Wetterbeobachtungen und Prognosen von mehr als 4000 Flughäfen (METAR und TAF Bericht).

Die verfügbaren Stationen werden durch gelbe und rote Markierungen auf der Karte dargestellt.

Führen Sie die Maus auf sie, um den Namen der Station zu sehen.

Darauf klicken, um die Beobachtung von Wetterbeobachtungen und Prognosen zu sehen.

Um die Karte zu ändern : klicken Sie auf den grünen Tasten mit einem schwarzen Kreuz Zum Vergrößern, auf den grünen Button mit einem Gedankenstrich zu verkleinern, oder auf die grünen Pfeile für benachbarte Karten.


METAR-TAF: